New Cambria, Missouri
Current Conditions -  °F | °C
As of 4:55 PM on Thursday 18 Dec 2014 (Local Time) from KIRK Reporting Station
Overcast Overcast  
Wind Chill: 23°   Ceiling: 1100
Heat Index: 30°   Visibility: 9mi
Dew Point: 28°   Wind: 7mph
Humidity: 92%   Direction: 50°NE
Pressure: 30.23"   Gusts: NA
Location:  39.78°N, 92.75°W
Report Text: KIRK 182255Z AUTO 05006KT 9SM OVC011 M01/M02 A3023 RMK AO2 PK WND 33032/2242 SLP253 T10111022
Loading
Personal Weather Stations






























Interactive Weather Map New forecast layout! Learn more

10-Day Weather Forecast

Advertisements
Track Severe Weather on mobile